sensor_id;sensor_type;location;lat;lon;timestamp;pressure;altitude;pressure_sealevel;temperature;humidity
64889;BME280;51386;53.082;8.816;2023-04-25T00:00:23;100556.31;;;14.06;55.45
64889;BME280;51386;53.082;8.816;2023-04-25T00:02:49;100556.53;;;14.04;55.16
64889;BME280;51386;53.082;8.816;2023-04-25T00:05:17;100563.44;;;14.05;54.77
64889;BME280;51386;53.082;8.816;2023-04-25T00:07:44;100561.00;;;14.04;54.17
64889;BME280;51386;53.082;8.816;2023-04-25T00:10:13;100558.75;;;14.01;53.66
64889;BME280;51386;53.082;8.816;2023-04-25T00:12:40;100566.91;;;13.99;53.94
64889;BME280;51386;53.082;8.816;2023-04-25T00:15:09;100558.34;;;13.97;53.81
64889;BME280;51386;53.082;8.816;2023-04-25T00:17:36;100569.53;;;13.99;53.75
64889;BME280;51386;53.082;8.816;2023-04-25T00:20:06;100571.78;;;14.02;53.88
64889;BME280;51386;53.082;8.816;2023-04-25T00:22:36;100573.19;;;14.05;53.91
64889;BME280;51386;53.082;8.816;2023-04-25T00:25:05;100570.16;;;14.08;53.53
64889;BME280;51386;53.082;8.816;2023-04-25T00:27:34;100574.63;;;14.07;53.10
64889;BME280;51386;53.082;8.816;2023-04-25T00:30:01;100579.13;;;14.07;52.57
64889;BME280;51386;53.082;8.816;2023-04-25T00:32:28;100575.84;;;14.05;52.04
64889;BME280;51386;53.082;8.816;2023-04-25T00:34:55;100581.13;;;14.05;52.23
64889;BME280;51386;53.082;8.816;2023-04-25T00:37:24;100578.50;;;14.05;52.06
64889;BME280;51386;53.082;8.816;2023-04-25T00:39:51;100572.59;;;14.03;52.02
64889;BME280;51386;53.082;8.816;2023-04-25T00:42:20;100573.00;;;14.00;51.65
64889;BME280;51386;53.082;8.816;2023-04-25T00:44:51;100580.31;;;13.98;51.88
64889;BME280;51386;53.082;8.816;2023-04-25T00:47:19;100582.56;;;13.94;52.03
64889;BME280;51386;53.082;8.816;2023-04-25T00:49:46;100580.91;;;13.93;51.93
64889;BME280;51386;53.082;8.816;2023-04-25T00:52:13;100591.09;;;13.90;51.79
64889;BME280;51386;53.082;8.816;2023-04-25T00:54:40;100588.44;;;13.90;51.79
64889;BME280;51386;53.082;8.816;2023-04-25T00:57:07;100584.78;;;13.91;51.74
64889;BME280;51386;53.082;8.816;2023-04-25T00:59:36;100596.19;;;13.91;51.94
64889;BME280;51386;53.082;8.816;2023-04-25T01:02:04;100593.75;;;13.90;51.57
64889;BME280;51386;53.082;8.816;2023-04-25T01:04:31;100594.34;;;13.85;51.42
64889;BME280;51386;53.082;8.816;2023-04-25T01:06:58;100594.94;;;13.81;51.24
64889;BME280;51386;53.082;8.816;2023-04-25T01:09:26;100595.34;;;13.78;51.26
64889;BME280;51386;53.082;8.816;2023-04-25T01:11:52;100599.41;;;13.74;51.38
64889;BME280;51386;53.082;8.816;2023-04-25T01:14:19;100596.53;;;13.69;51.42
64889;BME280;51386;53.082;8.816;2023-04-25T01:16:46;100597.72;;;13.66;51.34
64889;BME280;51386;53.082;8.816;2023-04-25T01:19:17;100594.66;;;13.63;51.36
64889;BME280;51386;53.082;8.816;2023-04-25T01:21:46;100597.31;;;13.63;51.54
64889;BME280;51386;53.082;8.816;2023-04-25T01:24:13;100598.13;;;13.63;51.22
64889;BME280;51386;53.082;8.816;2023-04-25T01:26:42;100606.25;;;13.62;50.44
64889;BME280;51386;53.082;8.816;2023-04-25T01:29:16;100608.31;;;13.60;50.45
64889;BME280;51386;53.082;8.816;2023-04-25T01:31:45;100611.13;;;13.58;50.63
64889;BME280;51386;53.082;8.816;2023-04-25T01:34:13;100614.78;;;13.57;50.20
64889;BME280;51386;53.082;8.816;2023-04-25T01:36:40;100617.63;;;13.55;50.22
64889;BME280;51386;53.082;8.816;2023-04-25T01:39:09;100620.47;;;13.54;49.49
64889;BME280;51386;53.082;8.816;2023-04-25T01:41:37;100623.31;;;13.52;48.73
64889;BME280;51386;53.082;8.816;2023-04-25T01:44:04;100624.09;;;13.53;49.23
64889;BME280;51386;53.082;8.816;2023-04-25T01:46:32;100628.59;;;13.52;49.16
64889;BME280;51386;53.082;8.816;2023-04-25T01:48:59;100632.47;;;13.56;49.36
64889;BME280;51386;53.082;8.816;2023-04-25T01:51:26;100637.56;;;13.58;49.28
64889;BME280;51386;53.082;8.816;2023-04-25T01:53:54;100641.25;;;13.57;49.08
64889;BME280;51386;53.082;8.816;2023-04-25T01:56:23;100647.72;;;13.54;49.71
64889;BME280;51386;53.082;8.816;2023-04-25T01:58:50;100646.09;;;13.53;49.06
64889;BME280;51386;53.082;8.816;2023-04-25T02:01:17;100646.47;;;13.50;49.10
64889;BME280;51386;53.082;8.816;2023-04-25T02:03:44;100652.78;;;13.49;48.96
64889;BME280;51386;53.082;8.816;2023-04-25T02:06:11;100651.53;;;13.45;48.78
64889;BME280;51386;53.082;8.816;2023-04-25T02:08:38;100658.22;;;13.41;49.07
64889;BME280;51386;53.082;8.816;2023-04-25T02:11:05;100661.06;;;13.40;48.89
64889;BME280;51386;53.082;8.816;2023-04-25T02:13:33;100674.47;;;13.38;49.09
64889;BME280;51386;53.082;8.816;2023-04-25T02:16:00;100662.28;;;13.37;49.23
64889;BME280;51386;53.082;8.816;2023-04-25T02:18:27;100663.47;;;13.35;49.19
64889;BME280;51386;53.082;8.816;2023-04-25T02:20:55;100661.22;;;13.32;49.45
64889;BME280;51386;53.082;8.816;2023-04-25T02:23:22;100668.13;;;13.26;49.54
64889;BME280;51386;53.082;8.816;2023-04-25T02:25:49;100661.56;;;13.22;49.75
64889;BME280;51386;53.082;8.816;2023-04-25T02:28:16;100666.59;;;13.17;49.60
64889;BME280;51386;53.082;8.816;2023-04-25T02:30:44;100664.53;;;13.13;49.59
64889;BME280;51386;53.082;8.816;2023-04-25T02:33:11;100671.44;;;13.07;49.79
64889;BME280;51386;53.082;8.816;2023-04-25T02:35:38;100664.22;;;13.01;49.84
64889;BME280;51386;53.082;8.816;2023-04-25T02:38:05;100660.34;;;12.97;49.93
64889;BME280;51386;53.082;8.816;2023-04-25T02:40:32;100666.00;;;12.94;49.88
64889;BME280;51386;53.082;8.816;2023-04-25T02:42:59;100654.81;;;12.92;49.78
64889;BME280;51386;53.082;8.816;2023-04-25T02:45:26;100646.06;;;12.91;49.91
64889;BME280;51386;53.082;8.816;2023-04-25T02:47:54;100653.16;;;12.91;50.30
64889;BME280;51386;53.082;8.816;2023-04-25T02:50:21;100647.72;;;12.93;50.29
64889;BME280;51386;53.082;8.816;2023-04-25T02:52:48;100651.19;;;12.93;50.36
64889;BME280;51386;53.082;8.816;2023-04-25T02:55:15;100649.34;;;12.93;49.92
64889;BME280;51386;53.082;8.816;2023-04-25T02:57:42;100649.53;;;12.92;49.43
64889;BME280;51386;53.082;8.816;2023-04-25T03:00:11;100655.81;;;12.91;49.58
64889;BME280;51386;53.082;8.816;2023-04-25T03:02:38;100644.25;;;12.92;49.57
64889;BME280;51386;53.082;8.816;2023-04-25T03:05:07;100648.53;;;12.93;49.18
64889;BME280;51386;53.082;8.816;2023-04-25T03:07:34;100658.69;;;12.96;48.80
64889;BME280;51386;53.082;8.816;2023-04-25T03:10:01;100645.31;;;12.98;48.64
64889;BME280;51386;53.082;8.816;2023-04-25T03:12:28;100656.69;;;12.98;48.34
64889;BME280;51386;53.082;8.816;2023-04-25T03:14:55;100652.41;;;12.97;48.44
64889;BME280;51386;53.082;8.816;2023-04-25T03:17:22;100660.34;;;12.97;48.48
64889;BME280;51386;53.082;8.816;2023-04-25T03:19:48;100666.25;;;12.99;48.65
64889;BME280;51386;53.082;8.816;2023-04-25T03:22:17;100660.97;;;12.99;48.42
64889;BME280;51386;53.082;8.816;2023-04-25T03:24:44;100668.91;;;12.99;48.33
64889;BME280;51386;53.082;8.816;2023-04-25T03:27:11;100674.19;;;12.99;48.52
64889;BME280;51386;53.082;8.816;2023-04-25T03:29:38;100673.34;;;12.99;48.42
64889;BME280;51386;53.082;8.816;2023-04-25T03:32:05;100664.59;;;12.98;48.15
64889;BME280;51386;53.082;8.816;2023-04-25T03:34:32;100662.38;;;12.95;48.23
64889;BME280;51386;53.082;8.816;2023-04-25T03:36:59;100669.66;;;12.93;48.32
64889;BME280;51386;53.082;8.816;2023-04-25T03:39:28;100679.59;;;12.91;48.49
64889;BME280;51386;53.082;8.816;2023-04-25T03:41:54;100673.69;;;12.89;48.25
64889;BME280;51386;53.082;8.816;2023-04-25T03:44:21;100672.06;;;12.88;48.29
64889;BME280;51386;53.082;8.816;2023-04-25T03:46:48;100677.53;;;12.86;48.36
64889;BME280;51386;53.082;8.816;2023-04-25T03:49:16;100685.66;;;12.85;48.18
64889;BME280;51386;53.082;8.816;2023-04-25T03:51:45;100685.03;;;12.83;48.03
64889;BME280;51386;53.082;8.816;2023-04-25T03:54:12;100690.69;;;12.80;48.51
64889;BME280;51386;53.082;8.816;2023-04-25T03:56:40;100686.78;;;12.76;48.57
64889;BME280;51386;53.082;8.816;2023-04-25T03:59:07;100695.47;;;12.70;48.27
64889;BME280;51386;53.082;8.816;2023-04-25T04:01:34;100703.53;;;12.62;48.00
64889;BME280;51386;53.082;8.816;2023-04-25T04:04:02;100690.44;;;12.54;47.85
64889;BME280;51386;53.082;8.816;2023-04-25T04:06:29;100700.09;;;12.47;48.24
64889;BME280;51386;53.082;8.816;2023-04-25T04:08:56;100698.22;;;12.41;48.06
64889;BME280;51386;53.082;8.816;2023-04-25T04:11:23;100703.25;;;12.36;48.16
64889;BME280;51386;53.082;8.816;2023-04-25T04:13:52;100710.91;;;12.31;48.17
64889;BME280;51386;53.082;8.816;2023-04-25T04:16:19;100708.00;;;12.26;48.45
64889;BME280;51386;53.082;8.816;2023-04-25T04:18:46;100718.09;;;12.22;48.98
64889;BME280;51386;53.082;8.816;2023-04-25T04:21:13;100712.41;;;12.18;48.87
64889;BME280;51386;53.082;8.816;2023-04-25T04:23:40;100727.75;;;12.15;48.66
64889;BME280;51386;53.082;8.816;2023-04-25T04:26:07;100722.22;;;12.10;48.88
64889;BME280;51386;53.082;8.816;2023-04-25T04:28:35;100726.44;;;12.04;49.15
64889;BME280;51386;53.082;8.816;2023-04-25T04:31:03;100737.34;;;12.01;49.29
64889;BME280;51386;53.082;8.816;2023-04-25T04:33:30;100737.34;;;12.01;48.77
64889;BME280;51386;53.082;8.816;2023-04-25T04:35:58;100740.44;;;12.05;49.14
64889;BME280;51386;53.082;8.816;2023-04-25T04:38:25;100748.78;;;12.08;48.86
64889;BME280;51386;53.082;8.816;2023-04-25T04:40:53;100755.31;;;12.12;48.88
64889;BME280;51386;53.082;8.816;2023-04-25T04:43:20;100754.97;;;12.15;48.56
64889;BME280;51386;53.082;8.816;2023-04-25T04:45:47;100756.22;;;12.19;48.92
64889;BME280;51386;53.082;8.816;2023-04-25T04:48:16;100763.78;;;12.22;48.19
64889;BME280;51386;53.082;8.816;2023-04-25T04:50:44;100757.31;;;12.25;48.37
64889;BME280;51386;53.082;8.816;2023-04-25T04:53:14;100759.59;;;12.28;48.39
64889;BME280;51386;53.082;8.816;2023-04-25T04:55:41;100763.69;;;12.31;48.12
64889;BME280;51386;53.082;8.816;2023-04-25T04:58:08;100765.31;;;12.32;47.44
64889;BME280;51386;53.082;8.816;2023-04-25T05:00:35;100766.59;;;12.36;47.48
64889;BME280;51386;53.082;8.816;2023-04-25T05:03:02;100769.50;;;12.41;47.42
64889;BME280;51386;53.082;8.816;2023-04-25T05:05:31;100768.13;;;12.45;47.30
64889;BME280;51386;53.082;8.816;2023-04-25T05:07:58;100772.84;;;12.49;47.56
64889;BME280;51386;53.082;8.816;2023-04-25T05:10:25;100775.28;;;12.51;47.79
64889;BME280;51386;53.082;8.816;2023-04-25T05:12:52;100782.00;;;12.53;47.55
64889;BME280;51386;53.082;8.816;2023-04-25T05:15:19;100779.84;;;12.57;47.65
64889;BME280;51386;53.082;8.816;2023-04-25T05:17:46;100785.53;;;12.60;47.21
64889;BME280;51386;53.082;8.816;2023-04-25T05:20:13;100783.38;;;12.64;47.29
64889;BME280;51386;53.082;8.816;2023-04-25T05:22:42;100771.41;;;12.68;47.08
64889;BME280;51386;53.082;8.816;2023-04-25T05:25:09;100782.22;;;12.73;46.88
64889;BME280;51386;53.082;8.816;2023-04-25T05:27:36;100779.59;;;12.73;46.65
64889;BME280;51386;53.082;8.816;2023-04-25T05:30:05;100786.53;;;12.74;46.89
64889;BME280;51386;53.082;8.816;2023-04-25T05:32:32;100795.63;;;12.71;46.92
64889;BME280;51386;53.082;8.816;2023-04-25T05:34:59;100793.56;;;12.67;47.06
64889;BME280;51386;53.082;8.816;2023-04-25T05:37:27;100795.75;;;12.63;46.78
64889;BME280;51386;53.082;8.816;2023-04-25T05:39:55;100792.47;;;12.61;47.12
64889;BME280;51386;53.082;8.816;2023-04-25T05:42:22;100793.66;;;12.59;47.27
64889;BME280;51386;53.082;8.816;2023-04-25T05:44:49;100804.59;;;12.56;47.38
64889;BME280;51386;53.082;8.816;2023-04-25T05:47:15;100802.69;;;12.50;47.07
64889;BME280;51386;53.082;8.816;2023-04-25T05:49:42;100802.44;;;12.45;47.42
64889;BME280;51386;53.082;8.816;2023-04-25T05:52:09;100804.19;;;12.38;47.34
64889;BME280;51386;53.082;8.816;2023-04-25T05:54:36;100807.19;;;12.35;47.24
64889;BME280;51386;53.082;8.816;2023-04-25T05:57:05;100813.47;;;12.34;48.01
64889;BME280;51386;53.082;8.816;2023-04-25T05:59:31;100815.56;;;12.38;48.20
64889;BME280;51386;53.082;8.816;2023-04-25T06:01:58;100813.97;;;12.44;47.95
64889;BME280;51386;53.082;8.816;2023-04-25T06:04:26;100815.69;;;12.51;47.93
64889;BME280;51386;53.082;8.816;2023-04-25T06:06:53;100818.06;;;12.61;47.87
64889;BME280;51386;53.082;8.816;2023-04-25T06:09:20;100827.88;;;12.67;47.54
64889;BME280;51386;53.082;8.816;2023-04-25T06:11:47;100824.69;;;12.71;47.45
64889;BME280;51386;53.082;8.816;2023-04-25T06:14:15;100821.03;;;12.72;47.49
64889;BME280;51386;53.082;8.816;2023-04-25T06:16:42;100817.81;;;12.77;47.22
64889;BME280;51386;53.082;8.816;2023-04-25T06:19:09;100828.66;;;12.82;47.01
64889;BME280;51386;53.082;8.816;2023-04-25T06:21:36;100831.91;;;12.84;46.80
64889;BME280;51386;53.082;8.816;2023-04-25T06:24:03;100836.00;;;12.86;46.54
64889;BME280;51386;53.082;8.816;2023-04-25T06:26:31;100830.56;;;12.88;46.49
64889;BME280;51386;53.082;8.816;2023-04-25T06:28:58;100836.09;;;12.93;46.56
64889;BME280;51386;53.082;8.816;2023-04-25T06:31:26;100827.16;;;12.94;46.24
64889;BME280;51386;53.082;8.816;2023-04-25T06:33:53;100831.25;;;12.97;46.26
64889;BME280;51386;53.082;8.816;2023-04-25T06:36:21;100834.34;;;13.00;46.02
64889;BME280;51386;53.082;8.816;2023-04-25T06:38:54;100831.94;;;13.05;46.09
64889;BME280;51386;53.082;8.816;2023-04-25T06:41:21;100841.81;;;13.11;45.72
64889;BME280;51386;53.082;8.816;2023-04-25T06:43:48;100846.41;;;13.24;45.69
64889;BME280;51386;53.082;8.816;2023-04-25T06:46:15;100848.59;;;13.41;44.65
64889;BME280;51386;53.082;8.816;2023-04-25T06:48:44;100839.38;;;13.58;43.81
64889;BME280;51386;53.082;8.816;2023-04-25T06:51:11;100851.31;;;13.76;43.71
64889;BME280;51386;53.082;8.816;2023-04-25T06:53:40;100849.56;;;13.89;42.71
64889;BME280;51386;53.082;8.816;2023-04-25T06:56:07;100854.75;;;14.04;42.75
64889;BME280;51386;53.082;8.816;2023-04-25T06:58:34;100854.84;;;14.17;42.30
64889;BME280;51386;53.082;8.816;2023-04-25T07:01:01;100863.06;;;14.29;41.60
64889;BME280;51386;53.082;8.816;2023-04-25T07:03:28;100849.88;;;14.35;40.88
64889;BME280;51386;53.082;8.816;2023-04-25T07:05:57;100857.41;;;14.38;41.17
64889;BME280;51386;53.082;8.816;2023-04-25T07:08:24;100867.25;;;14.44;41.26
64889;BME280;51386;53.082;8.816;2023-04-25T07:10:51;100878.69;;;14.51;41.24
64889;BME280;51386;53.082;8.816;2023-04-25T07:13:18;100871.81;;;14.57;40.58
64889;BME280;51386;53.082;8.816;2023-04-25T07:15:45;100868.56;;;14.61;40.79
64889;BME280;51386;53.082;8.816;2023-04-25T07:18:14;100873.28;;;14.72;40.90
64889;BME280;51386;53.082;8.816;2023-04-25T07:20:41;100878.41;;;14.80;40.74
64889;BME280;51386;53.082;8.816;2023-04-25T07:23:09;100875.19;;;14.91;40.68
64889;BME280;51386;53.082;8.816;2023-04-25T07:25:36;100874.19;;;15.06;40.57
64889;BME280;51386;53.082;8.816;2023-04-25T07:28:03;100876.91;;;15.19;39.87
64889;BME280;51386;53.082;8.816;2023-04-25T07:30:30;100871.59;;;15.32;39.86
64889;BME280;51386;53.082;8.816;2023-04-25T07:32:57;100873.28;;;15.52;39.55
64889;BME280;51386;53.082;8.816;2023-04-25T07:35:24;100876.94;;;16.04;37.91
64889;BME280;51386;53.082;8.816;2023-04-25T07:37:51;100890.69;;;16.78;37.37
64889;BME280;51386;53.082;8.816;2023-04-25T07:40:19;100890.28;;;17.43;36.57
64889;BME280;51386;53.082;8.816;2023-04-25T07:42:46;100887.81;;;18.22;35.74
64889;BME280;51386;53.082;8.816;2023-04-25T07:45:13;100884.38;;;19.06;34.69
64889;BME280;51386;53.082;8.816;2023-04-25T07:47:40;100885.03;;;20.07;33.10
64889;BME280;51386;53.082;8.816;2023-04-25T07:50:09;100889.28;;;21.06;32.06
64889;BME280;51386;53.082;8.816;2023-04-25T07:52:36;100887.28;;;21.75;29.14
64889;BME280;51386;53.082;8.816;2023-04-25T07:55:05;100879.28;;;22.30;28.11
64889;BME280;51386;53.082;8.816;2023-04-25T07:57:33;100881.03;;;22.84;27.27
64889;BME280;51386;53.082;8.816;2023-04-25T08:00:00;100881.16;;;23.21;26.56
64889;BME280;51386;53.082;8.816;2023-04-25T08:02:27;100886.53;;;23.21;26.25
64889;BME280;51386;53.082;8.816;2023-04-25T08:04:55;100893.53;;;22.73;26.63
64889;BME280;51386;53.082;8.816;2023-04-25T08:07:22;100890.53;;;22.10;26.56
64889;BME280;51386;53.082;8.816;2023-04-25T08:09:49;100900.78;;;21.35;26.99
64889;BME280;51386;53.082;8.816;2023-04-25T08:12:16;100904.50;;;20.66;27.95
64889;BME280;51386;53.082;8.816;2023-04-25T08:14:44;100903.88;;;20.01;28.22
64889;BME280;51386;53.082;8.816;2023-04-25T08:17:13;100918.63;;;19.39;29.03
64889;BME280;51386;53.082;8.816;2023-04-25T08:19:43;100918.56;;;18.79;29.91
64889;BME280;51386;53.082;8.816;2023-04-25T08:22:10;100925.84;;;18.30;31.08
64889;BME280;51386;53.082;8.816;2023-04-25T08:24:37;100947.75;;;17.89;32.07
64889;BME280;51386;53.082;8.816;2023-04-25T08:27:05;100947.19;;;17.49;33.95
64889;BME280;51386;53.082;8.816;2023-04-25T08:29:34;100947.19;;;17.11;35.42
64889;BME280;51386;53.082;8.816;2023-04-25T08:32:03;100947.09;;;16.80;35.84
64889;BME280;51386;53.082;8.816;2023-04-25T08:34:30;100940.59;;;16.50;36.54
64889;BME280;51386;53.082;8.816;2023-04-25T08:36:56;100958.22;;;16.24;35.96
64889;BME280;51386;53.082;8.816;2023-04-25T08:39:23;100950.06;;;16.00;35.69
64889;BME280;51386;53.082;8.816;2023-04-25T08:41:51;100953.94;;;15.84;35.79
64889;BME280;51386;53.082;8.816;2023-04-25T08:44:20;100959.88;;;15.73;35.77
64889;BME280;51386;53.082;8.816;2023-04-25T08:46:48;100965.97;;;15.67;36.04
64889;BME280;51386;53.082;8.816;2023-04-25T08:49:18;100965.97;;;15.67;35.99
64889;BME280;51386;53.082;8.816;2023-04-25T08:51:46;100975.38;;;15.76;35.71
64889;BME280;51386;53.082;8.816;2023-04-25T08:54:15;100975.56;;;15.81;35.74
64889;BME280;51386;53.082;8.816;2023-04-25T08:57:02;100977.03;;;15.97;35.55
64889;BME280;51386;53.082;8.816;2023-04-25T08:59:32;100979.09;;;16.21;35.53
64889;BME280;51386;53.082;8.816;2023-04-25T09:02:01;100986.31;;;16.91;34.23
64889;BME280;51386;53.082;8.816;2023-04-25T09:04:31;100980.22;;;17.28;33.81
64889;BME280;51386;53.082;8.816;2023-04-25T09:06:58;100978.31;;;18.11;32.60
64889;BME280;51386;53.082;8.816;2023-04-25T09:09:25;100980.41;;;19.84;30.54
64889;BME280;51386;53.082;8.816;2023-04-25T09:11:54;100992.06;;;21.90;28.81
64889;BME280;51386;53.082;8.816;2023-04-25T09:14:23;100990.41;;;22.72;26.49
64889;BME280;51386;53.082;8.816;2023-04-25T09:17:01;100991.88;;;22.79;25.60
64889;BME280;51386;53.082;8.816;2023-04-25T09:19:32;100993.91;;;22.72;25.62
64889;BME280;51386;53.082;8.816;2023-04-25T09:22:08;101000.00;;;22.51;26.68
64889;BME280;51386;53.082;8.816;2023-04-25T09:24:38;100999.38;;;22.44;26.21
64889;BME280;51386;53.082;8.816;2023-04-25T09:27:11;101001.75;;;22.24;26.68
64889;BME280;51386;53.082;8.816;2023-04-25T09:29:42;101001.19;;;21.89;26.34
64889;BME280;51386;53.082;8.816;2023-04-25T09:32:18;101015.31;;;21.16;27.14
64889;BME280;51386;53.082;8.816;2023-04-25T09:34:49;101013.63;;;20.41;27.44
64889;BME280;51386;53.082;8.816;2023-04-25T09:37:19;101031.03;;;19.79;28.32
64889;BME280;51386;53.082;8.816;2023-04-25T09:39:48;101036.53;;;19.36;29.33
64889;BME280;51386;53.082;8.816;2023-04-25T09:42:16;101043.81;;;19.11;30.68
64889;BME280;51386;53.082;8.816;2023-04-25T09:44:45;101059.63;;;18.87;32.30
64889;BME280;51386;53.082;8.816;2023-04-25T09:47:14;101047.78;;;18.83;32.70
64889;BME280;51386;53.082;8.816;2023-04-25T09:49:43;101053.88;;;19.09;32.60
64889;BME280;51386;53.082;8.816;2023-04-25T09:52:16;101044.84;;;19.46;31.89
64889;BME280;51386;53.082;8.816;2023-04-25T09:54:44;101038.94;;;19.85;31.75
64889;BME280;51386;53.082;8.816;2023-04-25T09:57:14;101040.25;;;20.59;31.38
64889;BME280;51386;53.082;8.816;2023-04-25T09:59:46;101039.63;;;21.26;29.82
64889;BME280;51386;53.082;8.816;2023-04-25T10:02:17;101043.84;;;22.07;28.75
64889;BME280;51386;53.082;8.816;2023-04-25T10:04:50;101042.22;;;23.54;27.07
64889;BME280;51386;53.082;8.816;2023-04-25T10:07:23;101042.28;;;24.86;23.59
64889;BME280;51386;53.082;8.816;2023-04-25T10:10:02;101043.75;;;25.91;22.06
64889;BME280;51386;53.082;8.816;2023-04-25T10:12:36;101044.28;;;26.78;21.77
64889;BME280;51386;53.082;8.816;2023-04-25T10:15:05;101039.72;;;27.48;19.70
64889;BME280;51386;53.082;8.816;2023-04-25T10:17:33;101024.72;;;28.09;19.40
64889;BME280;51386;53.082;8.816;2023-04-25T10:20:02;101035.97;;;28.79;17.59
64889;BME280;51386;53.082;8.816;2023-04-25T10:22:36;101038.34;;;28.57;18.19
64889;BME280;51386;53.082;8.816;2023-04-25T10:25:07;101052.09;;;27.59;19.18
64889;BME280;51386;53.082;8.816;2023-04-25T10:27:35;101051.03;;;26.61;19.64
64889;BME280;51386;53.082;8.816;2023-04-25T10:30:05;101043.97;;;25.59;20.37
64889;BME280;51386;53.082;8.816;2023-04-25T10:32:36;101054.28;;;25.15;20.68
64889;BME280;51386;53.082;8.816;2023-04-25T10:35:14;101062.72;;;23.87;22.65
64889;BME280;51386;53.082;8.816;2023-04-25T10:38:00;101062.94;;;22.94;24.07
64889;BME280;51386;53.082;8.816;2023-04-25T10:40:29;101066.69;;;22.43;24.58
64889;BME280;51386;53.082;8.816;2023-04-25T10:43:37;101062.97;;;22.44;25.19
64889;BME280;51386;53.082;8.816;2023-04-25T10:46:17;101070.53;;;22.63;24.76
64889;BME280;51386;53.082;8.816;2023-04-25T10:48:50;101068.81;;;22.74;25.23
64889;BME280;51386;53.082;8.816;2023-04-25T10:51:20;101064.94;;;23.41;24.50
64889;BME280;51386;53.082;8.816;2023-04-25T10:53:58;101064.59;;;23.38;24.31
64889;BME280;51386;53.082;8.816;2023-04-25T10:56:27;101065.56;;;23.75;24.28
64889;BME280;51386;53.082;8.816;2023-04-25T10:59:08;101059.56;;;23.95;23.97
64889;BME280;51386;53.082;8.816;2023-04-25T11:01:40;101067.97;;;24.03;23.93
64889;BME280;51386;53.082;8.816;2023-04-25T11:04:20;101064.31;;;24.09;24.00
64889;BME280;51386;53.082;8.816;2023-04-25T11:07:05;101064.56;;;24.40;23.89
64889;BME280;51386;53.082;8.816;2023-04-25T11:09:39;101063.44;;;24.72;23.33
64889;BME280;51386;53.082;8.816;2023-04-25T11:12:09;101063.94;;;24.64;23.25
64889;BME280;51386;53.082;8.816;2023-04-25T11:14:41;101070.34;;;24.95;23.53
64889;BME280;51386;53.082;8.816;2023-04-25T11:17:09;101068.38;;;25.32;23.19
64889;BME280;51386;53.082;8.816;2023-04-25T11:19:38;101066.69;;;25.93;22.26
64889;BME280;51386;53.082;8.816;2023-04-25T11:22:05;101081.78;;;27.00;21.50
64889;BME280;51386;53.082;8.816;2023-04-25T11:24:35;101090.44;;;27.07;21.20
64889;BME280;51386;53.082;8.816;2023-04-25T11:27:04;101085.09;;;26.37;22.21
64889;BME280;51386;53.082;8.816;2023-04-25T11:29:34;101096.84;;;25.13;23.72
64889;BME280;51386;53.082;8.816;2023-04-25T11:32:07;101116.19;;;23.83;26.11
64889;BME280;51386;53.082;8.816;2023-04-25T11:34:35;101125.72;;;22.59;28.21
64889;BME280;51386;53.082;8.816;2023-04-25T11:37:05;101129.63;;;21.39;29.92
64889;BME280;51386;53.082;8.816;2023-04-25T11:39:33;101145.69;;;20.40;31.77
64889;BME280;51386;53.082;8.816;2023-04-25T11:42:04;101146.00;;;19.54;33.23
64889;BME280;51386;53.082;8.816;2023-04-25T11:44:33;101108.94;;;18.85;33.25
64889;BME280;51386;53.082;8.816;2023-04-25T11:47:02;101118.53;;;18.37;33.67
64889;BME280;51386;53.082;8.816;2023-04-25T11:49:31;101116.91;;;17.98;34.30
64889;BME280;51386;53.082;8.816;2023-04-25T11:51:59;101109.66;;;17.74;35.20
64889;BME280;51386;53.082;8.816;2023-04-25T11:54:26;101112.13;;;17.69;35.80
64889;BME280;51386;53.082;8.816;2023-04-25T11:56:53;101124.38;;;17.76;34.96
64889;BME280;51386;53.082;8.816;2023-04-25T11:59:24;101127.19;;;17.88;35.17
64889;BME280;51386;53.082;8.816;2023-04-25T12:01:52;101128.53;;;18.10;34.97
64889;BME280;51386;53.082;8.816;2023-04-25T12:04:22;101131.63;;;18.38;34.44
64889;BME280;51386;53.082;8.816;2023-04-25T12:06:52;101144.69;;;18.77;34.19
64889;BME280;51386;53.082;8.816;2023-04-25T12:09:27;101161.94;;;19.00;33.47
64889;BME280;51386;53.082;8.816;2023-04-25T12:12:00;101160.47;;;19.04;32.95
64889;BME280;51386;53.082;8.816;2023-04-25T12:14:32;101158.19;;;18.82;33.55
64889;BME280;51386;53.082;8.816;2023-04-25T12:17:02;101158.19;;;18.82;33.33
64889;BME280;51386;53.082;8.816;2023-04-25T12:19:34;101148.47;;;19.13;33.68
64889;BME280;51386;53.082;8.816;2023-04-25T12:22:03;101158.97;;;19.32;32.19
64889;BME280;51386;53.082;8.816;2023-04-25T12:24:33;101154.13;;;19.23;31.80
64889;BME280;51386;53.082;8.816;2023-04-25T12:27:06;101160.41;;;19.10;31.96
64889;BME280;51386;53.082;8.816;2023-04-25T12:29:35;101157.81;;;19.04;31.67
64889;BME280;51386;53.082;8.816;2023-04-25T12:32:15;101156.31;;;19.08;31.61
64889;BME280;51386;53.082;8.816;2023-04-25T12:34:44;101150.31;;;19.37;30.34
64889;BME280;51386;53.082;8.816;2023-04-25T12:37:11;101152.47;;;19.46;30.86
64889;BME280;51386;53.082;8.816;2023-04-25T12:39:39;101153.75;;;20.21;30.33
64889;BME280;51386;53.082;8.816;2023-04-25T12:42:06;101150.88;;;20.53;29.22
64889;BME280;51386;53.082;8.816;2023-04-25T12:44:36;101149.34;;;20.57;28.57
64889;BME280;51386;53.082;8.816;2023-04-25T12:47:03;101145.53;;;20.76;28.66
64889;BME280;51386;53.082;8.816;2023-04-25T12:49:31;101147.34;;;21.05;27.44
64889;BME280;51386;53.082;8.816;2023-04-25T12:52:00;101145.56;;;21.34;27.42
64889;BME280;51386;53.082;8.816;2023-04-25T12:54:27;101155.53;;;21.62;27.32
64889;BME280;51386;53.082;8.816;2023-04-25T12:56:54;101154.91;;;22.22;26.74